Time;durP1;ratioP1;P1;durP2;ratioP2;P2;SDS_P1;SDS_P2;PMS_P1;PMS_P2;Temp;Humidity;BMP_temperature;BMP_pressure;BME280_temperature;BME280_humidity;BME280_pressure;Samples;Min_cycle;Max_cycle;Signal;HPM_P1;HPM_P2
2023/12/26 00:00:39;;;;;;;6.93;1.30;;;9.40;99.90;;;;;;6192670;23;20139;-77
2023/12/26 00:03:06;;;;;;;8.27;1.17;;;9.40;99.90;;;;;;6192609;23;20012;-77
2023/12/26 00:05:35;;;;;;;8.10;1.38;;;9.40;99.90;;;;;;6192500;23;20089;-77
2023/12/26 00:08:03;;;;;;;7.95;1.02;;;9.50;99.90;;;;;;6192656;23;20017;-77
2023/12/26 00:10:29;;;;;;;9.00;1.27;;;9.50;99.90;;;;;;6192625;23;20016;-77
2023/12/26 00:12:55;;;;;;;5.40;1.10;;;9.50;99.90;;;;;;6192542;23;20009;-77
2023/12/26 00:15:21;;;;;;;6.88;1.02;;;9.50;99.90;;;;;;6192553;23;20104;-77
2023/12/26 00:17:46;;;;;;;7.82;1.13;;;9.50;99.90;;;;;;6192600;23;20012;-77
2023/12/26 00:20:12;;;;;;;12.57;2.30;;;9.50;99.90;;;;;;6192561;23;20102;-77
2023/12/26 00:22:39;;;;;;;7.90;1.20;;;9.50;99.90;;;;;;6192520;23;20091;-77
2023/12/26 00:25:06;;;;;;;4.28;1.10;;;9.50;99.90;;;;;;6192435;23;20012;-77
2023/12/26 00:27:31;;;;;;;8.38;1.20;;;9.60;99.90;;;;;;6192519;23;20392;-77
2023/12/26 00:30:04;;;;;;;13.32;1.65;;;9.50;99.90;;;;;;6192560;23;20428;-77
2023/12/26 00:32:30;;;;;;;11.68;1.63;;;9.60;99.90;;;;;;6192464;23;20337;-77
2023/12/26 00:34:57;;;;;;;10.27;1.98;;;9.60;99.90;;;;;;6192527;23;20453;-77
2023/12/26 00:37:22;;;;;;;6.25;1.30;;;9.50;99.90;;;;;;6192402;23;20495;-77
2023/12/26 00:39:48;;;;;;;10.13;1.67;;;9.50;99.90;;;;;;6219071;23;20052;-77
2023/12/26 00:42:14;;;;;;;8.85;1.30;;;9.60;99.90;;;;;;6192477;23;20024;-77
2023/12/26 00:44:40;;;;;;;10.60;1.80;;;9.50;99.90;;;;;;6191272;23;20031;-78
2023/12/26 00:47:10;;;;;;;9.40;1.60;;;9.50;99.90;;;;;;6190879;23;20032;-77
2023/12/26 00:49:39;;;;;;;14.80;1.80;;;9.50;99.90;;;;;;6190176;23;20393;-77
2023/12/26 00:52:05;;;;;;;16.13;1.77;;;9.50;99.90;;;;;;6190860;23;20464;-77
2023/12/26 00:54:30;;;;;;;15.52;2.42;;;9.50;99.90;;;;;;6190725;23;20092;-77
2023/12/26 00:56:56;;;;;;;12.77;1.95;;;9.50;99.90;;;;;;6190793;23;20021;-77
2023/12/26 00:59:21;;;;;;;12.18;2.47;;;9.50;99.90;;;;;;6190753;23;20020;-77
2023/12/26 01:01:47;;;;;;;16.08;2.08;;;9.50;99.90;;;;;;6190705;23;20013;-77
2023/12/26 01:04:13;;;;;;;18.13;1.98;;;9.50;99.90;;;;;;6190782;23;20445;-77
2023/12/26 01:06:41;;;;;;;14.93;2.35;;;9.40;99.90;;;;;;6190691;23;20037;-77
2023/12/26 01:09:07;;;;;;;17.17;2.53;;;9.50;99.90;;;;;;6190636;23;20021;-77
2023/12/26 01:11:33;;;;;;;13.07;2.08;;;9.50;99.90;;;;;;6190718;23;20352;-77
2023/12/26 01:13:58;;;;;;;18.50;3.25;;;9.40;99.90;;;;;;6217561;23;20016;-77
2023/12/26 01:16:27;;;;;;;22.05;3.13;;;9.40;99.90;;;;;;6190645;23;20024;-77
2023/12/26 01:18:53;;;;;;;17.65;2.17;;;9.40;99.90;;;;;;6190612;23;20016;-77
2023/12/26 01:21:19;;;;;;;13.05;1.80;;;9.40;99.90;;;;;;6190452;23;20022;-77
2023/12/26 01:23:44;;;;;;;18.65;2.75;;;9.30;99.90;;;;;;6190682;23;20009;-77
2023/12/26 01:26:10;;;;;;;14.05;2.28;;;9.30;99.90;;;;;;6190441;23;20025;-77
2023/12/26 01:28:35;;;;;;;17.52;2.42;;;9.30;99.90;;;;;;6190481;23;20024;-77
2023/12/26 01:31:01;;;;;;;11.43;2.92;;;9.30;99.90;;;;;;6190472;23;20047;-77
2023/12/26 01:33:27;;;;;;;10.70;1.95;;;9.30;99.90;;;;;;6190466;23;20095;-77
2023/12/26 01:35:52;;;;;;;17.63;2.42;;;9.20;99.90;;;;;;6190458;23;20024;-77
2023/12/26 01:38:21;;;;;;;15.80;2.28;;;9.20;99.90;;;;;;6190426;23;20337;-77
2023/12/26 01:40:46;;;;;;;12.25;1.73;;;9.20;99.90;;;;;;6190562;23;20103;-77
2023/12/26 01:43:12;;;;;;;16.40;2.60;;;9.10;99.90;;;;;;6190404;23;20048;-77
2023/12/26 01:45:38;;;;;;;20.35;2.55;;;9.10;99.90;;;;;;6189986;23;20314;-77
2023/12/26 01:48:09;;;;;;;19.92;2.67;;;9.10;99.90;;;;;;6190303;23;20104;-77
2023/12/26 01:50:35;;;;;;;15.32;2.58;;;9.10;99.90;;;;;;6190635;23;20028;-77
2023/12/26 01:53:04;;;;;;;19.15;2.72;;;9.20;99.90;;;;;;6190306;23;20023;-77
2023/12/26 01:55:31;;;;;;;14.30;2.78;;;9.10;99.90;;;;;;6190359;23;20074;-77
2023/12/26 01:57:57;;;;;;;16.10;2.45;;;9.10;99.90;;;;;;6189953;23;20016;-77
2023/12/26 02:00:29;;;;;;;14.32;2.72;;;9.10;99.90;;;;;;6190091;23;20123;-77
2023/12/26 02:02:55;;;;;;;17.60;2.67;;;9.10;99.90;;;;;;6190187;23;20017;-77
2023/12/26 02:05:21;;;;;;;17.20;2.85;;;9.10;99.90;;;;;;6190082;23;20051;-77
2023/12/26 02:07:47;;;;;;;14.70;2.40;;;9.10;99.90;;;;;;6190167;23;20020;-77
2023/12/26 02:10:12;;;;;;;22.13;3.45;;;9.10;99.90;;;;;;6190121;23;20009;-77
2023/12/26 02:12:38;;;;;;;19.95;3.08;;;9.00;99.90;;;;;;6190053;23;20099;-77
2023/12/26 02:15:04;;;;;;;22.92;3.53;;;9.00;99.90;;;;;;6190123;23;20017;-77
2023/12/26 02:17:31;;;;;;;14.90;2.75;;;9.00;99.90;;;;;;6190657;23;20396;-77
2023/12/26 02:19:57;;;;;;;13.73;2.80;;;9.00;99.90;;;;;;6190143;23;20016;-77
2023/12/26 02:22:23;;;;;;;18.02;2.78;;;9.00;99.90;;;;;;6189973;23;20017;-77
2023/12/26 02:24:48;;;;;;;18.23;2.67;;;9.00;99.90;;;;;;6216841;23;20015;-77
2023/12/26 02:27:36;;;;;;;14.25;2.60;;;9.00;99.90;;;;;;6189610;23;20025;-77
2023/12/26 02:30:02;;;;;;;17.90;3.10;;;9.00;99.90;;;;;;6189907;23;20012;-77
2023/12/26 02:32:30;;;;;;;25.80;4.22;;;9.00;99.90;;;;;;6189869;23;20070;-77
2023/12/26 02:35:06;;;;;;;14.95;3.67;;;8.90;99.90;;;;;;6189802;23;20499;-77
2023/12/26 02:37:32;;;;;;;18.13;3.30;;;8.90;99.90;;;;;;6189938;23;20468;-77
2023/12/26 02:39:58;;;;;;;17.60;3.60;;;8.90;99.90;;;;;;6189781;23;20020;-77
2023/12/26 02:42:24;;;;;;;19.40;2.60;;;8.80;99.90;;;;;;6189833;23;20024;-77
2023/12/26 02:44:50;;;;;;;18.50;3.10;;;8.80;99.90;;;;;;6189532;23;20016;-77
2023/12/26 02:47:17;;;;;;;18.23;3.17;;;8.80;99.90;;;;;;6189670;23;20024;-77
2023/12/26 02:49:42;;;;;;;25.48;2.97;;;8.80;99.90;;;;;;6189730;23;20023;-77
2023/12/26 02:52:08;;;;;;;20.10;3.67;;;8.70;99.90;;;;;;6189651;23;20016;-77
2023/12/26 02:54:35;;;;;;;15.65;3.05;;;8.70;99.90;;;;;;6189621;23;20020;-77
2023/12/26 02:57:01;;;;;;;21.67;4.38;;;8.70;99.90;;;;;;6189606;23;20023;-77
2023/12/26 02:59:26;;;;;;;20.33;2.83;;;8.70;99.90;;;;;;6189643;23;20017;-77
2023/12/26 03:01:52;;;;;;;18.73;3.55;;;8.60;99.90;;;;;;6189708;23;20008;-77
2023/12/26 03:04:18;;;;;;;22.15;3.45;;;8.60;99.90;;;;;;6189469;23;20021;-77
2023/12/26 03:06:43;;;;;;;19.88;2.60;;;8.60;99.90;;;;;;6189539;23;20508;-77
2023/12/26 03:09:09;;;;;;;17.63;2.83;;;8.60;99.90;;;;;;6189291;23;20449;-77
2023/12/26 03:11:35;;;;;;;18.67;3.47;;;8.60;99.90;;;;;;6189516;23;20444;-77
2023/12/26 03:14:01;;;;;;;23.05;2.95;;;8.50;99.90;;;;;;6189628;23;20036;-77
2023/12/26 03:16:27;;;;;;;17.98;2.80;;;8.50;99.90;;;;;;6215865;23;20016;-77
2023/12/26 03:18:52;;;;;;;14.05;3.40;;;8.50;99.90;;;;;;6216821;23;20099;-77
2023/12/26 03:21:18;;;;;;;20.05;2.60;;;8.50;99.90;;;;;;6189543;23;20122;-77
2023/12/26 03:23:43;;;;;;;19.55;2.45;;;8.40;99.90;;;;;;6189538;23;20085;-77
2023/12/26 03:26:09;;;;;;;13.15;2.78;;;8.40;99.90;;;;;;6189389;23;20104;-77
2023/12/26 03:28:35;;;;;;;17.52;2.55;;;8.40;99.90;;;;;;6189391;23;20017;-77
2023/12/26 03:31:04;;;;;;;13.32;1.95;;;8.40;99.90;;;;;;6189398;23;20084;-77
2023/12/26 03:33:30;;;;;;;15.73;2.90;;;8.40;99.90;;;;;;6189340;23;20039;-77
2023/12/26 03:35:56;;;;;;;17.45;3.58;;;8.40;99.90;;;;;;6189213;23;20345;-77
2023/12/26 03:38:22;;;;;;;16.35;2.97;;;8.40;99.90;;;;;;6189332;23;20016;-77
2023/12/26 03:40:48;;;;;;;19.88;3.03;;;8.40;99.90;;;;;;6189289;23;20437;-77
2023/12/26 03:43:13;;;;;;;20.15;2.85;;;8.30;99.90;;;;;;6189320;23;20084;-77
2023/12/26 03:45:40;;;;;;;19.33;3.20;;;8.40;99.90;;;;;;6189090;23;20070;-77
2023/12/26 03:48:07;;;;;;;19.10;3.33;;;8.30;99.90;;;;;;6189265;23;20032;-77
2023/12/26 03:50:32;;;;;;;11.88;2.35;;;8.30;99.90;;;;;;6189226;23;20099;-77
2023/12/26 03:52:58;;;;;;;21.88;4.80;;;8.30;99.90;;;;;;6189458;23;20098;-77
2023/12/26 03:55:24;;;;;;;20.27;3.30;;;8.20;99.90;;;;;;6189411;23;20016;-77
2023/12/26 03:57:50;;;;;;;25.35;4.10;;;8.20;99.90;;;;;;6189278;23;20028;-77
2023/12/26 04:00:16;;;;;;;17.50;3.22;;;8.20;99.90;;;;;;6189376;23;20059;-77
2023/12/26 04:02:41;;;;;;;28.40;4.82;;;8.20;99.90;;;;;;6189283;23;20056;-77
2023/12/26 04:05:08;;;;;;;23.73;3.53;;;8.10;99.90;;;;;;6189108;23;20048;-77
2023/12/26 04:07:35;;;;;;;21.08;2.63;;;8.10;99.90;;;;;;6189254;23;20017;-77
2023/12/26 04:10:00;;;;;;;21.05;4.43;;;8.10;99.90;;;;;;6189264;23;20091;-77
2023/12/26 04:12:26;;;;;;;17.15;2.80;;;8.10;99.90;;;;;;6189225;23;20114;-77
2023/12/26 04:14:52;;;;;;;24.42;4.25;;;8.10;99.90;;;;;;6189280;23;20425;-77
2023/12/26 04:17:19;;;;;;;21.77;3.25;;;8.10;99.90;;;;;;6189148;23;20104;-77
2023/12/26 04:19:45;;;;;;;21.55;3.30;;;8.10;99.90;;;;;;6189897;23;20016;-77
2023/12/26 04:22:10;;;;;;;20.30;4.00;;;8.10;99.90;;;;;;6191122;23;20047;-76
2023/12/26 04:24:36;;;;;;;31.48;6.05;;;8.10;99.90;;;;;;6191083;23;20012;-77
2023/12/26 04:27:02;;;;;;;24.45;3.42;;;8.10;99.90;;;;;;6190894;23;20024;-77
2023/12/26 04:29:27;;;;;;;22.00;2.97;;;8.10;99.90;;;;;;6191006;23;20103;-77
2023/12/26 04:31:53;;;;;;;23.73;4.00;;;8.10;99.90;;;;;;6191063;23;20020;-77
2023/12/26 04:34:19;;;;;;;20.08;3.72;;;8.10;99.90;;;;;;6190952;23;20059;-76
2023/12/26 04:36:44;;;;;;;22.40;4.45;;;8.10;99.90;;;;;;6190953;23;20027;-77
2023/12/26 04:39:10;;;;;;;19.65;4.07;;;8.10;99.90;;;;;;6191019;23;20096;-77
2023/12/26 04:41:35;;;;;;;28.90;3.17;;;8.10;99.90;;;;;;6190907;23;20396;-77
2023/12/26 04:44:03;;;;;;;15.00;3.42;;;8.10;99.90;;;;;;6190745;23;20043;-77
2023/12/26 04:46:29;;;;;;;20.20;4.10;;;8.20;99.90;;;;;;6190415;23;20440;-77
2023/12/26 04:48:55;;;;;;;21.67;3.03;;;8.20;99.90;;;;;;6190862;23;20027;-77
2023/12/26 04:51:20;;;;;;;33.17;4.53;;;8.20;99.90;;;;;;6217823;23;20075;-77
2023/12/26 04:53:46;;;;;;;18.20;3.72;;;8.20;99.90;;;;;;6217697;23;20100;-77
2023/12/26 04:56:19;;;;;;;19.80;3.60;;;8.20;99.90;;;;;;6191010;23;20020;-77
2023/12/26 04:58:52;;;;;;;19.83;3.25;;;8.20;99.90;;;;;;6190799;23;20016;-77
2023/12/26 05:01:19;;;;;;;22.50;3.10;;;8.20;99.90;;;;;;6190819;23;20021;-77
2023/12/26 05:03:46;;;;;;;11.50;2.78;;;8.20;99.90;;;;;;6190752;23;20341;-77
2023/12/26 05:06:12;;;;;;;24.45;3.20;;;8.30;99.90;;;;;;6190479;23;20016;-77
2023/12/26 05:08:38;;;;;;;21.20;3.45;;;8.20;99.90;;;;;;6190695;23;20055;-77
2023/12/26 05:11:05;;;;;;;16.90;2.67;;;8.20;99.90;;;;;;6190741;23;20020;-77
2023/12/26 05:13:32;;;;;;;21.52;3.50;;;8.20;99.90;;;;;;6190712;23;20444;-77
2023/12/26 05:16:08;;;;;;;20.80;3.10;;;8.10;99.90;;;;;;6217225;23;20019;-77
2023/12/26 05:18:34;;;;;;;18.20;3.65;;;8.10;99.90;;;;;;6190669;23;20335;-77
2023/12/26 05:21:00;;;;;;;18.35;3.35;;;8.10;99.90;;;;;;6190592;23;20028;-77
2023/12/26 05:23:25;;;;;;;20.92;3.92;;;8.10;99.90;;;;;;6217176;23;20559;-77
2023/12/26 05:25:54;;;;;;;20.50;5.15;;;8.00;99.90;;;;;;6190477;23;20057;-77
2023/12/26 05:28:20;;;;;;;28.27;4.32;;;8.10;99.90;;;;;;6190374;23;20077;-77
2023/12/26 05:30:45;;;;;;;16.52;3.67;;;8.10;99.90;;;;;;6190211;23;20025;-77
2023/12/26 05:33:11;;;;;;;11.77;2.00;;;8.10;99.90;;;;;;6190412;23;20016;-77
2023/12/26 05:35:36;;;;;;;20.92;3.65;;;8.00;99.90;;;;;;6190384;23;20009;-77
2023/12/26 05:38:03;;;;;;;19.95;3.05;;;8.00;99.90;;;;;;6190441;23;20431;-77
2023/12/26 05:40:28;;;;;;;19.85;3.60;;;8.00;99.90;;;;;;6190341;23;20471;-77
2023/12/26 05:42:54;;;;;;;22.58;4.10;;;8.00;99.90;;;;;;6190108;23;20020;-77
2023/12/26 05:45:23;;;;;;;23.98;3.92;;;8.00;99.90;;;;;;6190038;23;20067;-77
2023/12/26 05:47:48;;;;;;;18.58;2.50;;;8.00;99.90;;;;;;6190363;23;20104;-77
2023/12/26 05:50:14;;;;;;;18.65;3.40;;;7.90;99.90;;;;;;6190241;23;20040;-77
2023/12/26 05:52:40;;;;;;;21.75;3.10;;;7.80;99.90;;;;;;6190198;23;20017;-77
2023/12/26 05:55:05;;;;;;;19.75;2.90;;;7.80;99.90;;;;;;6190230;23;20012;-77
2023/12/26 05:57:31;;;;;;;27.08;3.95;;;7.80;99.90;;;;;;6190213;23;20012;-77
2023/12/26 05:59:59;;;;;;;13.32;3.08;;;7.80;99.90;;;;;;6190142;23;20095;-77
2023/12/26 06:02:24;;;;;;;21.45;3.28;;;7.80;99.90;;;;;;6190233;23;20043;-77
2023/12/26 06:04:50;;;;;;;19.90;3.38;;;7.80;99.90;;;;;;6190171;23;20020;-77
2023/12/26 06:07:16;;;;;;;23.10;3.13;;;7.80;99.90;;;;;;6190038;23;20020;-77
2023/12/26 06:09:41;;;;;;;23.55;3.92;;;7.80;99.90;;;;;;6190056;23;20096;-77
2023/12/26 06:12:07;;;;;;;19.00;3.63;;;7.70;99.90;;;;;;6190150;23;20449;-76
2023/12/26 06:14:32;;;;;;;17.23;3.17;;;7.70;99.90;;;;;;6216683;23;20016;-77
2023/12/26 06:17:00;;;;;;;20.27;2.75;;;7.70;99.90;;;;;;6190047;23;20067;-77
2023/12/26 06:19:26;;;;;;;24.23;3.45;;;7.70;99.90;;;;;;6189775;23;20508;-77
2023/12/26 06:21:51;;;;;;;18.48;3.33;;;7.70;99.90;;;;;;6190028;23;20048;-77
2023/12/26 06:24:17;;;;;;;17.95;3.55;;;7.70;99.90;;;;;;6189959;23;20013;-77
2023/12/26 06:26:43;;;;;;;23.77;5.20;;;7.60;99.90;;;;;;6189798;23;20344;-77
2023/12/26 06:29:08;;;;;;;21.77;3.40;;;7.60;99.90;;;;;;6189836;23;20020;-77
2023/12/26 06:31:34;;;;;;;21.35;4.45;;;7.70;99.90;;;;;;6189880;23;20023;-76
2023/12/26 06:34:00;;;;;;;18.88;3.70;;;7.70;99.90;;;;;;6216362;23;20329;-77
2023/12/26 06:36:27;;;;;;;20.27;3.78;;;7.70;99.90;;;;;;6189747;23;20031;-77
2023/12/26 06:38:56;;;;;;;18.73;3.42;;;7.70;99.90;;;;;;6216684;23;20027;-77
2023/12/26 06:41:21;;;;;;;17.08;2.78;;;7.70;99.90;;;;;;6189766;23;20027;-77
2023/12/26 06:43:48;;;;;;;25.38;3.95;;;7.70;99.90;;;;;;6189361;23;20096;-77
2023/12/26 06:46:16;;;;;;;24.38;5.72;;;7.70;99.90;;;;;;6189552;23;20059;-77
2023/12/26 06:48:42;;;;;;;23.80;3.40;;;7.70;99.90;;;;;;6189784;23;20027;-77
2023/12/26 06:51:08;;;;;;;22.40;3.70;;;7.70;99.90;;;;;;6189747;23;20009;-76
2023/12/26 06:53:34;;;;;;;19.17;2.90;;;7.70;99.90;;;;;;6189714;23;20020;-77
2023/12/26 06:55:59;;;;;;;20.88;3.53;;;7.70;99.90;;;;;;6189656;23;20016;-76
2023/12/26 06:58:25;;;;;;;15.43;3.55;;;7.70;99.90;;;;;;6189695;23;20099;-77
2023/12/26 07:00:50;;;;;;;25.23;3.17;;;7.70;99.90;;;;;;6189616;23;20017;-77
2023/12/26 07:03:17;;;;;;;20.70;3.90;;;7.70;99.90;;;;;;6189488;23;20075;-77
2023/12/26 07:05:43;;;;;;;22.48;3.78;;;7.80;99.90;;;;;;6189540;23;20092;-77
2023/12/26 07:08:08;;;;;;;22.38;3.47;;;7.80;99.90;;;;;;6189598;23;20055;-77
2023/12/26 07:10:34;;;;;;;19.45;3.30;;;7.70;99.90;;;;;;6189602;23;20019;-77
2023/12/26 07:13:00;;;;;;;24.20;3.67;;;7.70;99.90;;;;;;6189500;23;20063;-77
2023/12/26 07:15:25;;;;;;;19.77;3.17;;;7.80;99.90;;;;;;6189508;23;20031;-77
2023/12/26 07:17:51;;;;;;;11.73;2.95;;;7.70;99.90;;;;;;6189490;23;20009;-76
2023/12/26 07:20:17;;;;;;;19.58;4.60;;;7.70;99.90;;;;;;6189524;23;20020;-76
2023/12/26 07:22:42;;;;;;;18.63;2.65;;;7.70;99.90;;;;;;6189438;23;20024;-77
2023/12/26 07:25:09;;;;;;;24.63;3.38;;;7.70;99.90;;;;;;6189447;23;20012;-77
2023/12/26 07:27:34;;;;;;;23.13;4.75;;;7.70;99.90;;;;;;6189368;23;20021;-76
2023/12/26 07:30:00;;;;;;;20.73;3.63;;;7.60;99.90;;;;;;6189495;23;20035;-76
2023/12/26 07:32:25;;;;;;;28.27;4.85;;;7.60;99.90;;;;;;6189436;23;20024;-77
2023/12/26 07:34:51;;;;;;;29.75;4.35;;;7.60;99.90;;;;;;6216357;23;20067;-76
2023/12/26 07:37:17;;;;;;;18.00;3.15;;;7.60;99.90;;;;;;6189666;23;20480;-77
2023/12/26 07:39:43;;;;;;;27.92;4.15;;;7.70;99.90;;;;;;6189297;23;20055;-79
2023/12/26 07:42:17;;;;;;;18.88;4.60;;;7.60;99.90;;;;;;6188212;23;20101;-76
2023/12/26 07:44:44;;;;;;;31.60;3.60;;;7.60;99.90;;;;;;6214700;23;20381;-76
2023/12/26 07:47:10;;;;;;;22.35;4.70;;;7.60;99.90;;;;;;6188314;23;20025;-77
2023/12/26 07:49:35;;;;;;;21.73;3.47;;;7.60;99.90;;;;;;6189008;23;20021;-76
2023/12/26 07:52:01;;;;;;;23.55;3.75;;;7.60;99.90;;;;;;6189045;23;20028;-77
2023/12/26 07:54:26;;;;;;;20.65;3.90;;;7.60;99.90;;;;;;6189393;23;20017;-76
2023/12/26 07:56:52;;;;;;;24.33;4.43;;;7.50;99.90;;;;;;6191018;23;20023;-76
2023/12/26 07:59:18;;;;;;;22.23;3.85;;;7.60;99.90;;;;;;6191103;23;20072;-77
2023/12/26 08:01:43;;;;;;;21.88;3.72;;;7.60;99.90;;;;;;6191061;23;20075;-78
2023/12/26 08:04:09;;;;;;;18.88;2.92;;;7.50;99.90;;;;;;6190772;23;20024;-78
2023/12/26 08:06:34;;;;;;;24.80;3.53;;;7.60;99.90;;;;;;6191002;23;20020;-76
2023/12/26 08:09:02;;;;;;;26.33;4.60;;;7.60;99.90;;;;;;6190835;23;20452;-77
2023/12/26 08:11:27;;;;;;;18.85;4.28;;;7.60;99.90;;;;;;6189757;23;20087;-77
2023/12/26 08:13:53;;;;;;;19.00;3.45;;;7.60;99.90;;;;;;6190833;23;20017;-77
2023/12/26 08:16:19;;;;;;;22.75;3.63;;;7.60;99.90;;;;;;6190888;23;20103;-78
2023/12/26 08:18:44;;;;;;;28.35;4.22;;;7.60;99.90;;;;;;6190832;23;20336;-78
2023/12/26 08:21:10;;;;;;;22.08;3.65;;;7.60;99.90;;;;;;6190937;23;20025;-78
2023/12/26 08:23:36;;;;;;;25.98;4.07;;;7.60;99.90;;;;;;6190697;23;20016;-77
2023/12/26 08:26:08;;;;;;;17.92;3.42;;;7.60;99.90;;;;;;6217312;23;20437;-79
2023/12/26 08:28:34;;;;;;;21.98;4.35;;;7.70;99.90;;;;;;6190773;23;20059;-78
2023/12/26 08:30:59;;;;;;;24.08;4.18;;;7.70;99.90;;;;;;6190697;23;20048;-77
2023/12/26 08:33:25;;;;;;;13.73;3.45;;;7.70;99.90;;;;;;6190805;23;20017;-80
2023/12/26 08:35:51;;;;;;;25.02;3.88;;;7.70;99.90;;;;;;6217735;23;20055;-77
2023/12/26 08:38:20;;;;;;;19.42;3.70;;;7.70;99.90;;;;;;6217009;23;20091;-77
2023/12/26 08:40:45;;;;;;;24.15;3.33;;;7.70;99.90;;;;;;6190531;23;20024;-77
2023/12/26 08:43:11;;;;;;;23.85;3.53;;;7.80;99.90;;;;;;6190516;23;20353;-78
2023/12/26 08:45:37;;;;;;;18.02;3.67;;;7.80;99.90;;;;;;6190321;23;20028;-78
2023/12/26 08:48:02;;;;;;;24.58;3.95;;;7.80;99.90;;;;;;6190653;23;20017;-79
2023/12/26 08:50:28;;;;;;;19.52;5.28;;;7.80;99.90;;;;;;6217425;23;20009;-77
2023/12/26 08:52:54;;;;;;;26.05;4.78;;;7.80;99.90;;;;;;6190391;23;20023;-77
2023/12/26 08:55:19;;;;;;;16.23;3.20;;;7.90;99.90;;;;;;6190478;23;20017;-77
2023/12/26 08:57:45;;;;;;;27.08;3.58;;;7.90;99.90;;;;;;6190437;23;20055;-80
2023/12/26 09:00:13;;;;;;;18.02;3.55;;;7.90;99.90;;;;;;6190332;23;20020;-76
2023/12/26 09:02:43;;;;;;;18.33;3.85;;;8.00;99.90;;;;;;6217576;23;20028;-77
2023/12/26 09:05:11;;;;;;;14.00;3.00;;;8.00;99.90;;;;;;6217532;23;20016;-77
2023/12/26 09:07:37;;;;;;;20.05;3.50;;;8.00;99.90;;;;;;6190047;23;20075;-77
2023/12/26 09:10:03;;;;;;;20.75;3.42;;;8.00;99.90;;;;;;6216980;23;20488;-77
2023/12/26 09:12:28;;;;;;;14.85;3.55;;;8.00;99.90;;;;;;6190490;23;20388;-77
2023/12/26 09:14:54;;;;;;;21.92;4.15;;;8.00;99.90;;;;;;6190598;23;20430;-77
2023/12/26 09:17:20;;;;;;;27.23;3.63;;;8.00;99.90;;;;;;6190600;23;20021;-77
2023/12/26 09:19:45;;;;;;;17.67;3.47;;;8.00;99.90;;;;;;6190504;23;20027;-77
2023/12/26 09:22:11;;;;;;;20.98;3.67;;;8.00;99.90;;;;;;6190530;23;20348;-77
2023/12/26 09:24:37;;;;;;;15.70;3.95;;;8.10;99.90;;;;;;6190432;23;20096;-77
2023/12/26 09:27:02;;;;;;;23.38;3.58;;;8.10;99.90;;;;;;6190310;23;20048;-77
2023/12/26 09:29:28;;;;;;;20.30;3.92;;;8.10;99.90;;;;;;6190436;23;20019;-77
2023/12/26 09:31:54;;;;;;;19.77;3.55;;;8.10;99.90;;;;;;6190397;23;20025;-77
2023/12/26 09:34:20;;;;;;;15.27;3.30;;;8.10;99.90;;;;;;6190288;23;20457;-76
2023/12/26 09:36:45;;;;;;;20.65;4.40;;;8.10;99.90;;;;;;6217242;23;20028;-77
2023/12/26 09:39:11;;;;;;;18.52;3.75;;;8.20;99.90;;;;;;6217201;23;20500;-77
2023/12/26 09:41:37;;;;;;;22.60;4.55;;;8.10;99.90;;;;;;6190158;23;20016;-77
2023/12/26 09:44:02;;;;;;;23.95;3.33;;;8.20;99.90;;;;;;6190321;23;20091;-76
2023/12/26 09:46:30;;;;;;;20.10;3.53;;;8.20;99.90;;;;;;6189969;23;20028;-77
2023/12/26 09:48:55;;;;;;;13.30;3.92;;;8.30;99.90;;;;;;6217047;23;20044;-77
2023/12/26 09:51:25;;;;;;;20.73;4.28;;;8.20;99.90;;;;;;6190207;23;20349;-77
2023/12/26 09:54:03;;;;;;;24.00;4.30;;;8.30;99.90;;;;;;6190262;23;20079;-77
2023/12/26 09:56:31;;;;;;;20.35;3.42;;;8.20;99.90;;;;;;6216723;23;20498;-77
2023/12/26 09:59:01;;;;;;;22.08;4.65;;;8.30;99.90;;;;;;6190383;23;20016;-77
2023/12/26 10:01:27;;;;;;;16.77;3.80;;;8.30;99.90;;;;;;6216817;23;20031;-77
2023/12/26 10:03:54;;;;;;;16.77;3.15;;;8.30;99.90;;;;;;6190137;23;20496;-77
2023/12/26 10:06:20;;;;;;;19.30;3.85;;;8.30;99.90;;;;;;6216889;23;20029;-77
2023/12/26 10:08:45;;;;;;;24.13;4.10;;;8.30;99.90;;;;;;6189930;23;20349;-77
2023/12/26 10:11:13;;;;;;;25.70;4.85;;;8.30;99.90;;;;;;6165158;23;20436;-77
2023/12/26 10:13:42;;;;;;;20.63;3.50;;;8.40;99.90;;;;;;6189987;23;20020;-77
2023/12/26 10:16:08;;;;;;;24.73;4.18;;;8.40;99.90;;;;;;6216848;23;20021;-77
2023/12/26 10:18:34;;;;;;;22.92;4.78;;;8.40;99.90;;;;;;6189771;23;20064;-77
2023/12/26 10:20:59;;;;;;;30.60;5.10;;;8.50;99.90;;;;;;6189882;23;20054;-77
2023/12/26 10:23:25;;;;;;;20.73;3.97;;;8.50;99.90;;;;;;6189949;23;20163;-76
2023/12/26 10:25:50;;;;;;;16.23;3.55;;;8.50;99.90;;;;;;6216364;23;20012;-77
2023/12/26 10:28:16;;;;;;;21.95;3.67;;;8.50;99.90;;;;;;6216376;23;20028;-77
2023/12/26 10:30:42;;;;;;;20.83;3.58;;;8.60;99.90;;;;;;6216337;23;20034;-76
2023/12/26 10:33:07;;;;;;;25.77;4.72;;;8.50;99.90;;;;;;6189744;23;20052;-77
2023/12/26 10:35:33;;;;;;;23.35;3.80;;;8.50;99.90;;;;;;6189796;23;20027;-76
2023/12/26 10:37:59;;;;;;;27.17;3.97;;;8.60;99.90;;;;;;6189869;23;20383;-77
2023/12/26 10:40:25;;;;;;;23.73;4.45;;;8.50;99.90;;;;;;6215778;23;20435;-77
2023/12/26 10:42:51;;;;;;;21.05;4.53;;;8.50;99.90;;;;;;6189642;23;20020;-77
2023/12/26 10:45:20;;;;;;;21.15;4.47;;;8.60;99.90;;;;;;6216199;23;20017;-77
2023/12/26 10:47:55;;;;;;;24.05;4.40;;;8.60;99.90;;;;;;6189661;23;20024;-77
2023/12/26 10:50:21;;;;;;;25.02;3.22;;;8.50;99.90;;;;;;6189784;23;20048;-77
2023/12/26 10:52:52;;;;;;;21.60;3.55;;;8.60;99.90;;;;;;6216586;23;20017;-77
2023/12/26 10:55:20;;;;;;;26.35;4.00;;;8.50;99.90;;;;;;6216545;23;20048;-76
2023/12/26 10:57:49;;;;;;;29.92;3.58;;;8.50;99.90;;;;;;6189480;23;20025;-77
2023/12/26 11:00:15;;;;;;;20.38;3.58;;;8.50;99.90;;;;;;6189644;23;20023;-77
2023/12/26 11:02:42;;;;;;;20.88;3.80;;;8.50;99.90;;;;;;6216437;23;20009;-77
2023/12/26 11:05:08;;;;;;;29.15;4.25;;;8.50;99.90;;;;;;6189513;23;20441;-76
2023/12/26 11:07:34;;;;;;;23.08;4.47;;;8.50;99.90;;;;;;6189401;23;20017;-77
2023/12/26 11:09:59;;;;;;;23.80;3.58;;;8.50;99.90;;;;;;6216171;23;20020;-76
2023/12/26 11:12:26;;;;;;;22.52;3.28;;;8.50;99.90;;;;;;6189413;23;20024;-77
2023/12/26 11:14:52;;;;;;;24.13;4.25;;;8.50;99.90;;;;;;6189520;23;20028;-77
2023/12/26 11:17:18;;;;;;;24.00;3.50;;;8.50;99.90;;;;;;6189768;23;20016;-77
2023/12/26 11:19:43;;;;;;;18.42;3.63;;;8.50;99.90;;;;;;6189413;23;20055;-77
2023/12/26 11:22:10;;;;;;;17.42;4.75;;;8.50;99.90;;;;;;6189399;23;20027;-76
2023/12/26 11:24:35;;;;;;;18.77;3.10;;;8.50;99.90;;;;;;6216013;23;20060;-77
2023/12/26 11:27:01;;;;;;;25.40;5.85;;;8.50;99.90;;;;;;6189205;23;20017;-76
2023/12/26 11:29:28;;;;;;;32.45;4.45;;;8.50;99.90;;;;;;6188974;23;20020;-76
2023/12/26 11:31:54;;;;;;;24.42;4.82;;;8.50;99.90;;;;;;6189361;23;20024;-77
2023/12/26 11:34:20;;;;;;;29.08;5.25;;;8.50;99.90;;;;;;6216208;23;20090;-77
2023/12/26 11:36:47;;;;;;;23.63;5.13;;;8.50;99.90;;;;;;6216150;23;20504;-77
2023/12/26 11:39:17;;;;;;;20.90;4.07;;;8.50;99.90;;;;;;6189380;23;20433;-77
2023/12/26 11:41:43;;;;;;;26.60;3.92;;;8.50;99.90;;;;;;6189281;23;20044;-76
2023/12/26 11:44:09;;;;;;;19.42;2.90;;;8.60;99.90;;;;;;6189386;23;20013;-77
2023/12/26 11:46:37;;;;;;;28.42;4.07;;;8.60;99.90;;;;;;6189356;23;20025;-76
2023/12/26 11:49:02;;;;;;;23.55;3.22;;;8.60;99.90;;;;;;6189219;23;20020;-76
2023/12/26 11:51:31;;;;;;;23.40;3.50;;;8.60;99.90;;;;;;6189218;23;20076;-77
2023/12/26 11:53:57;;;;;;;19.70;2.83;;;8.60;99.90;;;;;;6189217;23;20020;-77
2023/12/26 11:56:23;;;;;;;19.75;4.18;;;8.60;99.90;;;;;;6189227;23;20044;-77
2023/12/26 11:58:48;;;;;;;20.40;3.80;;;8.60;99.90;;;;;;6189122;23;20044;-77
2023/12/26 12:01:14;;;;;;;26.15;4.10;;;8.60;99.90;;;;;;6215615;23;20471;-77
2023/12/26 12:03:40;;;;;;;32.47;4.95;;;8.70;99.90;;;;;;6189153;23;20020;-77
2023/12/26 12:06:16;;;;;;;18.90;3.40;;;8.60;99.90;;;;;;6189547;23;20027;-77
2023/12/26 12:09:04;;;;;;;23.65;3.35;;;8.60;99.90;;;;;;6215695;23;20444;-77
2023/12/26 12:11:30;;;;;;;21.08;3.95;;;8.70;99.90;;;;;;6216057;23;20032;-77
2023/12/26 12:13:56;;;;;;;18.58;3.45;;;8.70;99.90;;;;;;6189520;23;20326;-76
2023/12/26 12:16:23;;;;;;;22.13;3.00;;;8.70;99.90;;;;;;6189585;23;20043;-77
2023/12/26 12:19:02;;;;;;;19.35;3.13;;;8.70;99.90;;;;;;6215732;23;20024;-76
2023/12/26 12:21:38;;;;;;;16.60;3.40;;;8.60;99.90;;;;;;6189053;23;20071;-77
2023/12/26 12:24:04;;;;;;;16.13;2.97;;;8.60;99.90;;;;;;6216096;23;20016;-77
2023/12/26 12:26:58;;;;;;;16.88;3.85;;;8.70;99.90;;;;;;6215835;23;20025;-77
2023/12/26 12:29:24;;;;;;;19.17;5.18;;;8.70;99.90;;;;;;6215999;23;20016;-76
2023/12/26 12:32:17;;;;;;;12.80;1.88;;;8.80;99.90;;;;;;6216039;23;20012;-76
2023/12/26 12:35:13;;;;;;;11.63;1.77;;;8.80;99.90;;;;;;6216011;23;20020;-76
2023/12/26 12:37:45;;;;;;;15.05;1.70;;;8.80;99.90;;;;;;6189443;23;20020;-76
2023/12/26 12:40:10;;;;;;;11.98;1.35;;;8.70;99.90;;;;;;6215806;23;20052;-76
2023/12/26 12:42:36;;;;;;;10.93;1.23;;;8.70;99.90;;;;;;6217791;23;20017;-76
2023/12/26 12:45:03;;;;;;;17.73;1.35;;;8.80;99.90;;;;;;6190533;23;20025;-77